Airfield :
LOGIN :

Register | Disclaimer

   EN    FR    IT 

 










Legend :    VFR   Marginal VFR   IFR   Intensive IFR   Very Intensive IFR
Visi :
Ceiling :
>= 8 km
>= 3000ft
5 to 8 km
1000 to 3000 ft
1500m to 5 km
500 to 1000 ft
800 to 1500m
200 to 500 ft
< 800m
< 200 ft
Symbols :   Thunderstorms  Fog  Heavy snow  Heavy precipitations  Wind > 20 kt
SIGMETs :     Misc.  Thunderstorms  Icing  Turbulence  Mountain Waves  Volcanic Ashes







- Airport Elevation : 461 ft
- IATA code : WIE


ETOU - Wiesbaden Army

CURRENT METAR :
  • 182056Z AUTO 26009KT 9999 SCT170 04/01 A3005 RMK AO2 SLPNO 60000 T00420014 57010

EXPIRED METARs :
  • 181956Z AUTO 26010KT 9999 BKN070 04/01 A3006 RMK AO2 RAE08 SLPNO P0000 T00420009
  • 181908Z AUTO 26008KT 9999 FEW039 SCT070 04/01 A3007 RMK AO2 RAE08 SLPNO
  • 181856Z AUTO 27010KT 9999 -RA SCT040 BKN060 05/01 A3008 RMK AO2 RAB29E38RAB47 SLPNO P0000 T00470010
  • 181847Z AUTO 26011KT 9999 -RA SCT040 BKN060 05/01 A3008 RMK AO2 RAB29E38RAB47 SLPNO
  • 181838Z AUTO 27010KT 9999 SCT041 BKN060 05/01 A3008 RMK AO2 RAB29E38 SLPNO
  • 181829Z AUTO 27010KT 9999 -RA SCT041 SCT050 BKN070 05/00 A3008 RMK AO2 RAB29 SLPNO

TAF AMD TAF ETOU
Valid from the 18 at 08:00 until the 19 at 09:00 UTC


180809Z 1808/1909 VRB03KT 0400 FG VV001 QNH3020INS
TEMPO 1808/1810 OVC010
BECMG 1809/1810 25009KT 5000 BR SCT010 BKN030 QNH3018INS
BECMG 1812/1813 27010G15KT 9999 NSW BKN030 620306 QNH3010INS
BECMG 1819/1820 30009KT 8000 -RASN OVC020 620206 QNH3008INS
BECMG 1904/1905 31009KT 9999 NSW BKN015 OVC030 620206 QNH3003INS TX07/1813Z TNM02/1903Z LAST NO AMDS AFT 1808 NEXT 1911
No reported NOTAMs for that airfield.



MET'MAP, your aeronautical weather chart ! - Copyright ORBIFLY December 2007 - Disclaimer

ORBIFLY MET'MAP TEAM :

Programming & Development : Alexandra Zaïnal
Concept & Development : Baudouin d'Aumeries
Co-Development & Prog : Marc-Olivier Méhu
Technical & hardware support : Manuel Goepfert

Contact : metmap@orbifly.com




SOURCES & CREDITS :

   NOAA